Amidon, North Dakota
Current Conditions -  °F | °C
As of 5:16 PM on Thursday 18 Dec 2014 (Local Time) from KDIK Reporting Station
Haze Haze  
Wind Chill: 12°   Ceiling: Unl
Heat Index: 21°   Visibility: 1.5mi
Dew Point: 19°   Wind: 7mph
Humidity: 92%   Direction: 170°S
Pressure: 29.92"   Gusts: NA
Location:  46.48°N, 103.32°W
Report Text: KDIK 190016Z AUTO 17006KT 1 1/2SM BR CLR M06/M07 A2992 RMK AO2 T10611072
Loading
Personal Weather Stations






























Interactive Weather Map New forecast layout! Learn more

10-Day Weather Forecast

Advertisements
Track Severe Weather on mobile